Time;durP1;ratioP1;P1;durP2;ratioP2;P2;SDS_P1;SDS_P2;PMS_P1;PMS_P2;Temp;Humidity;BMP_temperature;BMP_pressure;BME280_temperature;BME280_humidity;BME280_pressure;Samples;Min_cycle;Max_cycle;Signal;HPM_P1;HPM_P2
2022/07/18 00:01:30;;;;;;;5.30;1.60;;;;;;;17.28;48.01;99954.61;234308;1199;140311;-60
2022/07/18 00:06:33;;;;;;;7.10;2.00;;;;;;;17.25;48.01;99960.41;234290;1199;139264;-59
2022/07/18 00:11:36;;;;;;;3.10;1.70;;;;;;;17.18;48.18;99959.70;234221;1199;141885;-57
2022/07/18 00:16:39;;;;;;;8.70;2.10;;;;;;;17.08;48.31;99953.10;234339;1199;138917;-59
2022/07/18 00:21:42;;;;;;;6.80;2.10;;;;;;;16.98;48.32;99955.58;234285;1199;138766;-58
2022/07/18 00:26:45;;;;;;;5.90;1.90;;;;;;;16.91;48.72;99959.73;234191;1199;139517;-59
2022/07/18 00:31:48;;;;;;;8.30;2.50;;;;;;;16.85;49.00;99957.27;234233;1199;138901;-59
2022/07/18 00:36:51;;;;;;;6.00;1.90;;;;;;;16.83;49.08;99955.64;234234;1199;139910;-58
2022/07/18 00:41:54;;;;;;;4.20;1.90;;;;;;;16.77;48.96;99955.88;234209;1199;139006;-59
2022/07/18 00:47:00;;;;;;;4.10;1.90;;;;;;;16.74;48.79;99956.60;234314;1199;139164;-59
2022/07/18 00:52:04;;;;;;;4.90;1.80;;;;;;;16.75;48.81;99956.38;234191;1199;140021;-58
2022/07/18 00:57:07;;;;;;;7.20;1.90;;;;;;;16.75;48.71;99956.91;234266;1199;138855;-58
2022/07/18 01:02:10;;;;;;;5.00;2.40;;;;;;;16.74;48.79;99962.17;234229;1199;139096;-59
2022/07/18 01:07:13;;;;;;;3.90;2.10;;;;;;;16.72;48.66;99956.39;234301;1199;138781;-58
2022/07/18 01:12:16;;;;;;;5.50;2.30;;;;;;;16.73;48.76;99947.71;234155;1199;139410;-57
2022/07/18 01:17:19;;;;;;;5.60;2.00;;;;;;;16.73;48.76;99942.73;234291;1199;139116;-58
2022/07/18 01:22:22;;;;;;;4.60;2.10;;;;;;;16.71;48.94;99940.86;234286;1199;142112;-56
2022/07/18 01:27:26;;;;;;;7.00;2.20;;;;;;;16.64;49.02;99939.02;234305;1199;138985;-57
2022/07/18 01:32:28;;;;;;;5.20;2.30;;;;;;;16.55;49.31;99940.43;234178;1199;139813;-59
2022/07/18 01:37:31;;;;;;;5.70;2.70;;;;;;;16.45;49.38;99936.48;234292;1199;139006;-58
2022/07/18 01:42:34;;;;;;;6.00;2.70;;;;;;;16.41;49.47;99931.40;234219;1199;138978;-58
2022/07/18 01:47:37;;;;;;;7.40;2.80;;;;;;;16.39;49.66;99930.10;234326;1198;139224;-59
2022/07/18 01:52:42;;;;;;;5.50;2.40;;;;;;;16.37;49.73;99926.87;234419;1199;139307;-59
2022/07/18 01:57:45;;;;;;;6.30;2.50;;;;;;;16.31;49.85;99926.02;234225;1199;138954;-60
2022/07/18 02:02:47;;;;;;;3.90;2.30;;;;;;;16.28;49.98;99926.23;234124;1199;139314;-60
2022/07/18 02:07:51;;;;;;;7.10;2.50;;;;;;;16.23;50.20;99924.61;234215;1199;138792;-59
2022/07/18 02:12:54;;;;;;;5.40;2.40;;;;;;;16.17;50.04;99922.35;234219;1199;139239;-59
2022/07/18 02:17:57;;;;;;;8.50;3.10;;;;;;;16.07;50.21;99920.90;234347;1198;139546;-58
2022/07/18 02:23:00;;;;;;;7.40;3.00;;;;;;;16.00;50.47;99917.34;234322;1199;139556;-58
2022/07/18 02:28:04;;;;;;;6.20;3.20;;;;;;;15.97;50.84;99917.52;234247;1199;140384;-60
2022/07/18 02:33:07;;;;;;;7.00;3.00;;;;;;;15.96;50.93;99917.76;234333;1199;139385;-59
2022/07/18 02:38:10;;;;;;;9.90;3.40;;;;;;;15.93;51.08;99924.42;234333;1199;139458;-59
2022/07/18 02:43:13;;;;;;;8.30;4.00;;;;;;;15.89;51.22;99924.55;234274;1198;139550;-59
2022/07/18 02:48:16;;;;;;;10.50;3.40;;;;;;;15.85;51.34;99925.17;234121;1199;138966;-59
2022/07/18 02:53:19;;;;;;;7.70;4.00;;;;;;;15.80;51.52;99924.10;234173;1199;139457;-57
2022/07/18 02:58:22;;;;;;;37.40;26.50;;;;;;;15.73;51.71;99921.14;234262;1199;139746;-57
2022/07/18 03:03:24;;;;;;;48.70;35.90;;;;;;;15.74;52.04;99919.12;234191;1199;139155;-57
2022/07/18 03:08:27;;;;;;;9.30;5.30;;;;;;;15.74;52.17;99926.29;234287;1198;139411;-57
2022/07/18 03:13:31;;;;;;;8.30;3.70;;;;;;;15.86;52.40;99925.27;234169;1199;138921;-57
2022/07/18 03:18:34;;;;;;;5.90;2.90;;;;;;;15.80;52.19;99928.51;234305;1199;138759;-57
2022/07/18 03:23:36;;;;;;;11.60;4.20;;;;;;;15.73;52.45;99931.92;234255;1199;138682;-58
2022/07/18 03:28:40;;;;;;;7.20;3.90;;;;;;;15.72;52.55;99942.54;234299;1199;139912;-60
2022/07/18 03:33:43;;;;;;;6.60;3.50;;;;;;;15.69;52.73;99945.44;234044;1200;140586;-59
2022/07/18 03:38:46;;;;;;;7.60;3.80;;;;;;;15.65;52.81;99949.59;234276;1199;139742;-60
2022/07/18 03:43:49;;;;;;;8.10;3.70;;;;;;;15.63;52.92;99947.26;234204;1199;138668;-60
2022/07/18 03:48:52;;;;;;;72.60;55.10;;;;;;;15.63;53.03;99951.35;234237;1199;138757;-61
2022/07/18 03:53:55;;;;;;;9.80;5.30;;;;;;;15.68;53.26;99950.84;234245;1199;138997;-61
2022/07/18 03:58:58;;;;;;;8.10;4.10;;;;;;;15.73;53.07;99953.73;233881;1199;138478;-60
2022/07/18 04:04:01;;;;;;;9.70;3.90;;;;;;;15.74;53.25;99958.27;234057;1200;139508;-59
2022/07/18 04:09:05;;;;;;;8.90;3.90;;;;;;;15.77;53.15;99962.91;234249;1199;139509;-58
2022/07/18 04:14:07;;;;;;;10.00;4.00;;;;;;;15.78;53.07;99964.62;234207;1199;140540;-60
2022/07/18 04:19:10;;;;;;;7.20;4.00;;;;;;;15.77;53.09;99968.83;234216;1199;139535;-57
2022/07/18 04:24:13;;;;;;;9.60;4.10;;;;;;;15.76;53.09;99970.86;234295;1199;138843;-59
2022/07/18 04:29:16;;;;;;;8.20;4.20;;;;;;;15.78;53.29;99968.23;234187;1199;139105;-58
2022/07/18 04:34:19;;;;;;;9.70;4.60;;;;;;;15.81;53.50;99974.82;234436;1199;140926;-60
2022/07/18 04:39:22;;;;;;;7.70;4.20;;;;;;;15.85;53.62;99977.40;234116;1199;138854;-61
2022/07/18 04:44:25;;;;;;;9.30;4.30;;;;;;;15.97;53.64;99983.36;233886;1199;138960;-59
2022/07/18 04:49:28;;;;;;;8.70;3.70;;;;;;;16.06;53.43;99980.27;234201;1199;138823;-56
2022/07/18 04:54:30;;;;;;;7.90;4.40;;;;;;;16.16;53.40;99977.39;234306;1199;138984;-60
2022/07/18 04:59:33;;;;;;;6.30;3.50;;;;;;;16.30;53.40;99979.51;234233;1199;139035;-60
2022/07/18 05:04:39;;;;;;;8.50;3.40;;;;;;;16.42;53.37;99977.91;234420;1199;138447;-60
2022/07/18 05:09:42;;;;;;;9.90;3.20;;;;;;;16.52;53.38;99969.14;234232;1198;139251;-63
2022/07/18 05:14:45;;;;;;;11.50;3.50;;;;;;;16.66;53.25;99967.40;234242;1199;138752;-60
2022/07/18 05:19:52;;;;;;;7.20;3.70;;;;;;;16.74;53.08;99963.08;234259;1199;139312;-60
2022/07/18 05:24:55;;;;;;;12.40;3.80;;;;;;;16.80;52.96;99963.17;234245;1199;139404;-61
2022/07/18 05:29:59;;;;;;;9.60;3.80;;;;;;;16.90;52.95;99957.42;234189;1199;139523;-58
2022/07/18 05:35:02;;;;;;;10.60;3.60;;;;;;;17.03;53.22;99953.11;233732;1199;139052;-60
2022/07/18 05:40:07;;;;;;;14.30;4.30;;;;;;;17.20;53.12;99959.54;234129;1199;139247;-59
2022/07/18 05:45:11;;;;;;;8.60;3.40;;;;;;;17.38;53.03;99952.81;234287;1197;138933;-60
2022/07/18 05:50:14;;;;;;;7.10;3.40;;;;;;;17.55;52.95;99956.17;234134;1199;139711;-60
2022/07/18 05:55:17;;;;;;;9.10;3.00;;;;;;;17.69;52.76;99947.34;234272;1199;138726;-60
2022/07/18 06:00:20;;;;;;;8.00;3.10;;;;;;;17.78;52.43;99947.60;234248;1199;139043;-60
2022/07/18 06:05:23;;;;;;;6.40;3.10;;;;;;;17.91;52.43;99940.31;234116;1198;138672;-59
2022/07/18 06:10:28;;;;;;;9.90;3.40;;;;;;;18.02;52.13;99939.63;234395;1199;141024;-60
2022/07/18 06:15:31;;;;;;;9.20;3.30;;;;;;;18.12;51.84;99942.40;233638;1199;138956;-60
2022/07/18 06:20:34;;;;;;;9.90;3.40;;;;;;;18.22;51.94;99943.77;234253;1199;139450;-60
2022/07/18 06:25:37;;;;;;;8.60;3.70;;;;;;;18.34;51.54;99947.73;234259;1199;138949;-58
2022/07/18 06:30:40;;;;;;;10.80;3.60;;;;;;;18.42;51.38;99943.32;234293;1199;138764;-58
2022/07/18 06:35:43;;;;;;;13.20;3.60;;;;;;;18.51;51.44;99946.70;234101;1199;139220;-60
2022/07/18 06:40:46;;;;;;;10.30;3.50;;;;;;;18.58;51.27;99943.23;234404;1198;138761;-60
2022/07/18 06:45:52;;;;;;;24.10;14.00;;;;;;;18.64;51.31;99940.09;234274;1199;139120;-62
2022/07/18 06:50:55;;;;;;;12.60;6.30;;;;;;;18.74;51.56;99941.64;234220;1199;139465;-61
2022/07/18 06:55:58;;;;;;;9.10;4.20;;;;;;;18.91;51.45;99938.77;234308;1199;139322;-60
2022/07/18 07:01:01;;;;;;;11.20;4.00;;;;;;;19.07;51.32;99929.85;234032;1199;139190;-59
2022/07/18 07:06:04;;;;;;;13.20;3.70;;;;;;;19.23;51.08;99929.88;234188;1199;139871;-61
2022/07/18 07:11:07;;;;;;;11.70;4.10;;;;;;;19.37;50.71;99933.52;234125;1199;140806;-62
2022/07/18 07:16:10;;;;;;;7.20;3.10;;;;;;;19.54;50.41;99935.54;234151;1199;139458;-60
2022/07/18 07:21:13;;;;;;;8.20;2.90;;;;;;;19.67;49.94;99937.13;234081;1199;139808;-61
2022/07/18 07:26:21;;;;;;;12.60;6.40;;;;;;;19.78;49.62;99933.86;234121;1198;139129;-61
2022/07/18 07:31:24;;;;;;;7.30;2.90;;;;;;;19.89;49.41;99933.08;234198;1198;139992;-61
2022/07/18 07:36:27;;;;;;;8.60;2.50;;;;;;;20.05;49.42;99931.81;234152;1199;139910;-59
2022/07/18 07:41:30;;;;;;;7.10;2.90;;;;;;;20.20;49.01;99936.87;234155;1199;139671;-58
2022/07/18 07:46:34;;;;;;;8.50;2.80;;;;;;;20.32;48.77;99937.41;234160;1199;140151;-59
2022/07/18 07:51:37;;;;;;;8.30;2.80;;;;;;;20.47;48.55;99938.81;234083;1199;138888;-59
2022/07/18 07:56:40;;;;;;;12.30;5.70;;;;;;;20.60;48.26;99939.11;234145;1199;140061;-60
2022/07/18 08:01:43;;;;;;;8.50;2.80;;;;;;;20.71;47.82;99940.44;234137;1199;139051;-61
2022/07/18 08:06:46;;;;;;;7.80;2.40;;;;;;;20.86;47.56;99937.29;234202;1199;138842;-61
2022/07/18 08:11:49;;;;;;;5.40;1.90;;;;;;;20.96;46.88;99930.04;234183;1199;139123;-61
2022/07/18 08:16:52;;;;;;;5.70;1.60;;;;;;;21.10;46.26;99928.77;234255;1199;139877;-59
2022/07/18 08:21:55;;;;;;;4.80;1.40;;;;;;;21.23;45.20;99930.67;234083;1199;139604;-61
2022/07/18 08:26:58;;;;;;;3.00;1.20;;;;;;;21.34;44.24;99927.50;234208;1199;139261;-59
2022/07/18 08:32:01;;;;;;;4.80;1.20;;;;;;;21.44;43.53;99922.64;234012;1199;139198;-59
2022/07/18 08:37:05;;;;;;;7.20;1.50;;;;;;;21.53;43.14;99918.20;234211;1198;138965;-59
2022/07/18 08:42:08;;;;;;;3.30;1.40;;;;;;;21.61;42.84;99910.70;234137;1198;138980;-61
2022/07/18 08:47:13;;;;;;;6.10;1.60;;;;;;;21.75;42.72;99909.60;234357;1199;138884;-59
2022/07/18 08:52:16;;;;;;;3.80;1.70;;;;;;;21.84;42.37;99906.54;234188;1199;139305;-59
2022/07/18 08:57:37;;;;;;;4.10;1.40;;;;;;;21.95;42.28;99901.69;234140;1199;139153;-59
2022/07/18 09:02:40;;;;;;;4.60;1.50;;;;;;;22.11;42.03;99905.04;234139;1199;139653;-60
2022/07/18 09:07:43;;;;;;;7.40;4.50;;;;;;;22.28;41.84;99902.36;234166;1199;139133;-59
2022/07/18 09:12:56;;;;;;;3.60;1.50;;;;;;;22.43;41.56;99895.63;234093;1199;140571;-60
2022/07/18 09:18:05;;;;;;;5.70;1.40;;;;;;;22.53;41.19;99895.95;234091;1199;140173;-58
2022/07/18 09:23:33;;;;;;;5.70;1.80;;;;;;;22.69;41.17;99895.05;234066;1199;138920;-56
2022/07/18 09:28:53;;;;;;;5.80;1.50;;;;;;;22.85;41.07;99900.86;234262;1199;139422;-58
2022/07/18 09:34:35;;;;;;;4.20;1.60;;;;;;;23.03;40.66;99907.83;234172;1199;140468;-55
2022/07/18 09:39:38;;;;;;;130.90;89.90;;;;;;;23.18;40.25;99901.64;234165;1199;139655;-57
2022/07/18 09:44:41;;;;;;;8.30;3.60;;;;;;;23.32;39.94;99903.08;234145;1198;139709;-58
2022/07/18 09:49:44;;;;;;;8.40;2.20;;;;;;;23.44;39.63;99896.05;234226;1199;138838;-57
2022/07/18 09:54:47;;;;;;;7.10;1.50;;;;;;;23.53;39.27;99896.77;234142;1198;139450;-59
2022/07/18 09:59:50;;;;;;;5.80;1.60;;;;;;;23.60;39.11;99895.14;234089;1199;139276;-58
2022/07/18 10:04:54;;;;;;;5.50;1.70;;;;;;;23.71;38.92;99897.30;234237;1199;139812;-59
2022/07/18 10:09:57;;;;;;;3.70;1.50;;;;;;;23.83;38.81;99884.65;234136;1199;138934;-59
2022/07/18 10:15:01;;;;;;;13.10;6.40;;;;;;;23.99;38.66;99883.00;234129;1199;140422;-56
2022/07/18 10:20:06;;;;;;;4.70;1.80;;;;;;;24.19;38.66;99880.32;234180;1199;140095;-57
2022/07/18 10:25:11;;;;;;;6.60;1.60;;;;;;;24.46;38.56;99880.80;234168;1199;139695;-55
2022/07/18 10:30:14;;;;;;;2.50;1.50;;;;;;;24.71;38.22;99878.59;233793;1199;139369;-58
2022/07/18 10:35:17;;;;;;;5.90;1.90;;;;;;;24.86;37.70;99874.14;234005;1199;139164;-57
2022/07/18 10:40:27;;;;;;;8.00;1.50;;;;;;;25.04;37.76;99877.63;234159;1200;138898;-57
2022/07/18 10:45:47;;;;;;;8.70;2.00;;;;;;;25.22;37.35;99872.13;234192;1199;138726;-55
2022/07/18 10:51:06;;;;;;;7.10;1.70;;;;;;;25.39;36.98;99873.39;234146;1199;138955;-54
2022/07/18 10:56:09;;;;;;;4.90;1.60;;;;;;;25.57;36.91;99864.63;234145;1199;139085;-56
2022/07/18 11:01:23;;;;;;;8.80;1.90;;;;;;;25.71;36.51;99855.82;234220;1199;138685;-55
2022/07/18 11:06:53;;;;;;;6.30;2.10;;;;;;;25.73;36.16;99852.98;234132;1199;138957;-57
2022/07/18 11:12:22;;;;;;;9.00;1.90;;;;;;;25.82;35.99;99851.36;234106;1199;139432;-55
2022/07/18 11:18:16;;;;;;;6.00;1.60;;;;;;;25.94;36.03;99846.66;234115;1199;139949;-57
2022/07/18 11:23:22;;;;;;;5.90;1.60;;;;;;;26.05;35.44;99846.50;233908;1199;138974;-55
2022/07/18 11:28:28;;;;;;;4.30;1.90;;;;;;;26.16;35.46;99832.89;234258;1199;138960;-56
2022/07/18 11:33:34;;;;;;;5.60;1.60;;;;;;;26.40;35.62;99830.88;234197;1199;138908;-54
2022/07/18 11:38:45;;;;;;;6.60;2.00;;;;;;;26.56;35.41;99828.61;234202;1199;139507;-57
2022/07/18 11:43:50;;;;;;;10.40;2.10;;;;;;;26.71;34.98;99825.83;234312;1199;138969;-56
2022/07/18 11:49:05;;;;;;;8.90;2.00;;;;;;;26.88;34.98;99822.58;234124;1199;138820;-56
2022/07/18 11:54:10;;;;;;;10.80;2.40;;;;;;;27.07;35.03;99822.28;234188;1199;139104;-56
2022/07/18 11:59:13;;;;;;;6.00;1.70;;;;;;;27.31;35.06;99813.46;234218;1199;140762;-56
2022/07/18 12:04:18;;;;;;;6.30;2.10;;;;;;;27.50;34.89;99807.06;234284;1199;139138;-57
2022/07/18 12:09:27;;;;;;;5.10;1.90;;;;;;;27.57;34.12;99804.26;234187;1199;139685;-58
2022/07/18 12:14:30;;;;;;;5.20;1.70;;;;;;;27.66;34.22;99801.95;234253;1199;139242;-57
2022/07/18 12:19:39;;;;;;;7.80;2.30;;;;;;;27.81;34.33;99798.12;234230;1198;139496;-57
2022/07/18 12:24:53;;;;;;;5.80;2.20;;;;;;;27.98;33.91;99795.52;234229;1199;139129;-58
2022/07/18 12:30:20;;;;;;;5.60;1.90;;;;;;;28.13;33.67;99795.94;234233;1199;139327;-58
2022/07/18 12:35:27;;;;;;;5.70;1.90;;;;;;;28.21;33.44;99788.45;234196;1198;139142;-56
2022/07/18 12:40:47;;;;;;;6.40;2.00;;;;;;;28.45;33.36;99778.70;234223;1199;139847;-57
2022/07/18 12:45:51;;;;;;;7.30;2.00;;;;;;;28.75;33.74;99779.13;234218;1199;139696;-58
2022/07/18 12:51:12;;;;;;;6.50;1.70;;;;;;;28.95;32.98;99779.98;234199;1199;139057;-57
2022/07/18 12:56:15;;;;;;;5.90;1.70;;;;;;;29.10;32.33;99776.13;234145;1199;139186;-56
2022/07/18 13:01:18;;;;;;;8.60;2.00;;;;;;;29.20;32.19;99766.39;234250;1199;139559;-57
2022/07/18 13:06:21;;;;;;;7.30;1.80;;;;;;;29.38;32.00;99756.45;234035;1199;139411;-58
2022/07/18 13:11:24;;;;;;;7.60;1.70;;;;;;;29.56;31.89;99754.65;234148;1199;139158;-57
2022/07/18 13:16:32;;;;;;;4.30;1.60;;;;;;;29.65;31.91;99747.59;234342;1199;138400;-57
2022/07/18 13:21:35;;;;;;;6.10;1.80;;;;;;;29.84;31.94;99747.59;234205;1199;138928;-57
2022/07/18 13:26:38;;;;;;;10.80;1.80;;;;;;;30.09;31.72;99742.92;234187;1199;139335;-57
2022/07/18 13:31:41;;;;;;;6.70;1.90;;;;;;;30.21;31.29;99742.23;234159;1199;139778;-57
2022/07/18 13:36:44;;;;;;;6.00;1.90;;;;;;;30.36;31.21;99737.39;234193;1199;139426;-59
2022/07/18 13:41:48;;;;;;;7.20;2.00;;;;;;;30.61;30.85;99737.17;234197;1199;139907;-58
2022/07/18 13:46:51;;;;;;;3.70;1.70;;;;;;;30.51;30.28;99740.32;234394;1198;142085;-58
2022/07/18 13:51:54;;;;;;;5.90;2.10;;;;;;;30.15;30.09;99736.25;234270;1198;139457;-57
2022/07/18 13:56:57;;;;;;;3.00;1.60;;;;;;;29.79;30.18;99734.96;234261;1199;140356;-57
2022/07/18 14:02:00;;;;;;;4.10;1.60;;;;;;;29.38;30.26;99736.88;234053;1199;139098;-57
2022/07/18 14:07:05;;;;;;;6.00;2.60;;;;;;;29.09;30.74;99737.19;234133;1199;138961;-57
2022/07/18 14:12:08;;;;;;;;;;;;;;;29.04;30.93;99734.75;234314;1199;139229;-58
2022/07/18 14:17:11;;;;;;;4.60;1.80;;;;;;;29.07;31.54;99723.21;234380;1198;125143;-57
2022/07/18 14:22:14;;;;;;;5.10;2.20;;;;;;;29.31;31.80;99722.23;234282;1199;139236;-57
2022/07/18 14:27:17;;;;;;;228.20;185.50;;;;;;;29.48;31.26;99713.78;234085;1199;139202;-57
2022/07/18 14:32:27;;;;;;;7.10;3.60;;;;;;;29.61;31.24;99715.77;234282;1199;140700;-58
2022/07/18 14:37:30;;;;;;;4.30;1.80;;;;;;;29.61;30.72;99711.86;234298;1199;140193;-57
2022/07/18 14:42:33;;;;;;;5.00;1.40;;;;;;;29.50;30.48;99705.26;234221;1199;139147;-58
2022/07/18 14:47:37;;;;;;;10.40;3.40;;;;;;;29.41;30.75;99706.98;234326;1199;138734;-57
2022/07/18 14:52:40;;;;;;;5.40;2.40;;;;;;;29.25;30.81;99704.58;234194;1199;139201;-57
2022/07/18 14:57:43;;;;;;;3.50;1.80;;;;;;;28.97;30.72;99696.21;234209;1199;139529;-56
2022/07/18 15:02:46;;;;;;;5.50;1.90;;;;;;;28.57;30.98;99690.48;234244;1199;139399;-56
2022/07/18 15:07:49;;;;;;;6.00;2.00;;;;;;;28.29;31.19;99688.27;234260;1199;139229;-54
2022/07/18 15:12:52;;;;;;;3.80;1.60;;;;;;;28.13;31.51;99691.20;234195;1199;139622;-58
2022/07/18 15:17:55;;;;;;;8.40;2.00;;;;;;;28.01;31.59;99688.15;234249;1199;138916;-56
2022/07/18 15:22:58;;;;;;;5.60;2.10;;;;;;;27.90;31.46;99687.17;234310;1199;138830;-58
2022/07/18 15:28:01;;;;;;;3.70;1.60;;;;;;;27.75;31.39;99683.95;233813;1199;139127;-56
2022/07/18 15:33:04;;;;;;;6.30;1.80;;;;;;;27.58;31.52;99678.87;234194;1199;139321;-55
2022/07/18 15:38:07;;;;;;;4.80;2.30;;;;;;;27.49;31.81;99673.30;234184;1199;139103;-57
2022/07/18 15:43:10;;;;;;;5.30;2.10;;;;;;;27.42;32.35;99674.33;234179;1199;139358;-57
2022/07/18 15:48:13;;;;;;;6.50;1.40;;;;;;;27.32;32.33;99673.02;234201;1199;139270;-57
2022/07/18 15:53:16;;;;;;;7.40;2.20;;;;;;;27.24;32.05;99673.79;234234;1199;142160;-57
2022/07/18 15:58:19;;;;;;;4.20;1.50;;;;;;;27.19;32.17;99675.52;234319;1199;138756;-55
2022/07/18 16:03:22;;;;;;;6.60;1.90;;;;;;;27.14;32.05;99672.31;234245;1199;139595;-57
2022/07/18 16:08:27;;;;;;;7.50;2.70;;;;;;;27.07;32.07;99667.44;234239;1199;139803;-57
2022/07/18 16:13:30;;;;;;;5.90;2.20;;;;;;;27.08;32.30;99666.95;234165;1199;139440;-57
2022/07/18 16:18:33;;;;;;;6.80;2.20;;;;;;;27.13;32.29;99657.57;234303;1199;139333;-55
2022/07/18 16:23:36;;;;;;;4.60;2.30;;;;;;;27.10;32.16;99657.20;234173;1199;138895;-56
2022/07/18 16:28:39;;;;;;;5.80;2.00;;;;;;;27.04;32.05;99660.49;234381;1199;139209;-55
2022/07/18 16:33:42;;;;;;;5.80;2.00;;;;;;;26.98;32.05;99658.88;234170;1199;139399;-56
2022/07/18 16:38:45;;;;;;;6.00;1.90;;;;;;;26.90;32.07;99652.34;234206;1199;138853;-57
2022/07/18 16:43:48;;;;;;;6.70;1.90;;;;;;;26.83;31.95;99654.08;234187;1199;138880;-57
2022/07/18 16:48:51;;;;;;;5.90;1.90;;;;;;;26.77;31.95;99657.02;234284;1199;138558;-57
2022/07/18 16:53:55;;;;;;;7.60;1.80;;;;;;;26.72;32.13;99655.14;234212;1199;139091;-58
2022/07/18 16:58:58;;;;;;;3.10;1.60;;;;;;;26.66;32.15;99646.55;234351;1199;140840;-57
2022/07/18 17:04:02;;;;;;;9.00;2.50;;;;;;;26.62;32.16;99646.64;234186;1199;138962;-56
2022/07/18 17:09:05;;;;;;;5.90;1.80;;;;;;;26.58;32.08;99644.40;234241;1199;140860;-56
2022/07/18 17:14:08;;;;;;;5.10;2.40;;;;;;;26.54;32.43;99643.44;234086;1199;139343;-57
2022/07/18 17:19:12;;;;;;;8.50;2.00;;;;;;;26.50;32.33;99639.35;234126;1199;138943;-57
2022/07/18 17:24:16;;;;;;;4.10;1.60;;;;;;;26.47;32.36;99640.80;234118;1199;138586;-56
2022/07/18 17:29:19;;;;;;;3.70;1.70;;;;;;;26.43;32.39;99639.74;234064;1200;139734;-57
2022/07/18 17:34:22;;;;;;;7.50;2.10;;;;;;;26.41;32.53;99646.79;234335;1199;138927;-54
2022/07/18 17:39:25;;;;;;;5.70;1.70;;;;;;;26.37;32.67;99643.71;233782;1199;139084;-57
2022/07/18 17:44:29;;;;;;;6.30;3.30;;;;;;;26.35;32.63;99647.83;234214;1199;138800;-55
2022/07/18 17:49:32;;;;;;;9.10;2.50;;;;;;;26.28;32.61;99644.64;234299;1199;139480;-56
2022/07/18 17:54:35;;;;;;;311.50;232.10;;;;;;;26.23;32.82;99645.62;234016;1199;139334;-59
2022/07/18 17:59:38;;;;;;;18.70;12.30;;;;;;;26.18;33.04;99642.17;234147;1199;140233;-56
2022/07/18 18:04:41;;;;;;;7.30;4.10;;;;;;;26.13;33.03;99641.36;234244;1199;139443;-55
2022/07/18 18:09:44;;;;;;;6.70;2.40;;;;;;;26.06;33.31;99645.64;234220;1199;139383;-58
2022/07/18 18:14:48;;;;;;;53.80;39.20;;;;;;;25.99;33.40;99646.80;234062;1199;139078;-58
2022/07/18 18:19:51;;;;;;;6.60;4.20;;;;;;;25.92;33.54;99646.84;234118;1199;139565;-59
2022/07/18 18:24:54;;;;;;;6.70;3.50;;;;;;;25.78;33.87;99650.58;234098;1199;138548;-58
2022/07/18 18:29:57;;;;;;;156.90;121.40;;;;;;;25.60;34.42;99651.80;234136;1199;139063;-58
2022/07/18 18:35:00;;;;;;;8.80;5.30;;;;;;;25.46;34.86;99650.41;234236;1199;141176;-58
2022/07/18 18:40:05;;;;;;;9.50;3.40;;;;;;;25.31;35.28;99658.09;234084;1199;138803;-56
2022/07/18 18:45:10;;;;;;;5.20;2.90;;;;;;;25.14;35.72;99661.63;234056;1199;139492;-58
2022/07/18 18:50:13;;;;;;;7.90;2.60;;;;;;;24.98;36.07;99665.95;234237;1199;141938;-58
2022/07/18 18:55:17;;;;;;;38.00;30.60;;;;;;;24.84;36.14;99667.32;234157;1199;139445;-58
2022/07/18 19:00:21;;;;;;;9.50;4.50;;;;;;;24.69;36.30;99667.17;234174;1199;139576;-56
2022/07/18 19:05:24;;;;;;;13.10;3.40;;;;;;;24.51;36.63;99675.23;234231;1199;138662;-56
2022/07/18 19:10:27;;;;;;;8.50;3.50;;;;;;;24.32;37.06;99681.40;234358;1199;139865;-57
2022/07/18 19:15:30;;;;;;;11.00;3.50;;;;;;;24.20;37.47;99681.55;234192;1199;139383;-57
2022/07/18 19:20:33;;;;;;;84.70;74.60;;;;;;;24.09;37.90;99685.60;234317;1199;139603;-57
2022/07/18 19:25:36;;;;;;;11.10;6.00;;;;;;;23.97;38.09;99689.63;234201;1199;140179;-58
2022/07/18 19:30:39;;;;;;;10.30;6.50;;;;;;;23.83;38.34;99686.75;234247;1199;139672;-57
2022/07/18 19:35:42;;;;;;;9.40;4.20;;;;;;;23.70;38.81;99688.98;234175;1199;139678;-55
2022/07/18 19:40:45;;;;;;;9.00;4.30;;;;;;;23.55;39.30;99689.00;234380;1199;139715;-57
2022/07/18 19:45:48;;;;;;;9.40;4.20;;;;;;;23.39;39.53;99689.06;234046;1199;139597;-57
2022/07/18 19:50:51;;;;;;;11.50;4.30;;;;;;;23.23;39.76;99687.65;234180;1198;139056;-58
2022/07/18 19:55:55;;;;;;;11.80;4.40;;;;;;;23.09;40.10;99695.46;234241;1199;139241;-57
2022/07/18 20:00:58;;;;;;;9.20;4.20;;;;;;;22.94;40.42;99697.52;234204;1199;140067;-57
2022/07/18 20:06:01;;;;;;;9.60;4.30;;;;;;;22.82;40.86;99693.14;234257;1199;139706;-58
2022/07/18 20:11:10;;;;;;;9.50;3.80;;;;;;;22.70;41.31;99691.98;234410;1198;139012;-57
2022/07/18 20:16:13;;;;;;;9.50;3.70;;;;;;;22.60;41.74;99692.17;234238;1199;139166;-59
2022/07/18 20:21:16;;;;;;;6.00;3.50;;;;;;;22.50;41.99;99689.91;234154;1199;139227;-58
2022/07/18 20:26:19;;;;;;;14.30;4.00;;;;;;;22.39;42.19;99685.68;234231;1199;138917;-57
2022/07/18 20:31:22;;;;;;;9.50;4.00;;;;;;;22.29;42.65;99684.73;234146;1199;140173;-57
2022/07/18 20:36:25;;;;;;;7.40;3.70;;;;;;;22.20;42.94;99684.20;234202;1199;138671;-58
2022/07/18 20:41:28;;;;;;;9.60;3.80;;;;;;;22.11;43.16;99683.15;234262;1199;138980;-57
2022/07/18 20:46:33;;;;;;;8.60;4.10;;;;;;;21.99;43.53;99686.45;234217;1199;139941;-57
2022/07/18 20:51:36;;;;;;;;;;;;;;;21.87;43.85;99687.84;234149;1199;139599;-57
2022/07/18 20:56:44;;;;;;;8.00;3.90;;;;;;;21.75;44.27;99693.75;234298;1199;126191;-57
2022/07/18 21:01:47;;;;;;;9.20;3.50;;;;;;;21.64;44.55;99692.33;234269;1199;138843;-58
2022/07/18 21:06:50;;;;;;;8.80;3.10;;;;;;;21.54;44.78;99696.53;234269;1199;138924;-58
2022/07/18 21:11:53;;;;;;;9.30;3.40;;;;;;;21.43;45.11;99687.98;234304;1198;139018;-59
2022/07/18 21:16:56;;;;;;;10.80;4.00;;;;;;;21.33;45.37;99681.34;234340;1199;139755;-59
2022/07/18 21:21:59;;;;;;;9.50;3.50;;;;;;;21.23;45.47;99675.64;234291;1199;139423;-58
2022/07/18 21:27:08;;;;;;;10.50;4.40;;;;;;;21.12;45.76;99674.19;234240;1198;139134;-58
2022/07/18 21:32:11;;;;;;;7.90;3.80;;;;;;;21.01;46.06;99671.95;234225;1199;141319;-57
2022/07/18 21:37:15;;;;;;;11.80;4.00;;;;;;;20.91;46.30;99674.19;234233;1199;138429;-58
2022/07/18 21:42:18;;;;;;;15.10;4.20;;;;;;;20.80;46.64;99673.58;234333;1198;139442;-57
2022/07/18 21:47:22;;;;;;;10.60;4.20;;;;;;;20.71;46.99;99670.73;234214;1199;139785;-57
2022/07/18 21:52:25;;;;;;;12.90;4.70;;;;;;;20.61;47.04;99666.43;234353;1199;138897;-58
2022/07/18 21:57:28;;;;;;;12.80;4.60;;;;;;;20.49;47.31;99668.08;234306;1199;140628;-55
2022/07/18 22:02:31;;;;;;;12.90;4.40;;;;;;;20.39;47.56;99669.46;234201;1199;138972;-57
2022/07/18 22:07:34;;;;;;;13.00;5.20;;;;;;;20.30;47.80;99670.88;234293;1199;138815;-56
2022/07/18 22:12:45;;;;;;;10.00;5.20;;;;;;;20.22;47.90;99668.71;234245;1199;139249;-57
2022/07/18 22:17:48;;;;;;;10.00;5.00;;;;;;;20.14;48.20;99671.25;233972;1199;138864;-55
2022/07/18 22:22:51;;;;;;;9.20;4.50;;;;;;;20.04;48.39;99668.58;234406;1199;140248;-57
2022/07/18 22:27:54;;;;;;;11.40;4.70;;;;;;;19.95;48.49;99673.75;234246;1199;139384;-57
2022/07/18 22:32:57;;;;;;;9.70;4.00;;;;;;;19.87;48.77;99669.96;234211;1199;138549;-56
2022/07/18 22:38:00;;;;;;;10.20;4.40;;;;;;;19.80;49.00;99664.27;234213;1199;139423;-56
2022/07/18 22:43:03;;;;;;;9.90;4.40;;;;;;;19.74;49.18;99665.73;234277;1199;139457;-57
2022/07/18 22:48:06;;;;;;;12.60;4.90;;;;;;;19.67;49.38;99665.09;234171;1199;139335;-57
2022/07/18 22:53:09;;;;;;;8.30;4.20;;;;;;;19.60;49.44;99656.08;234413;1199;139452;-56
2022/07/18 22:58:12;;;;;;;9.40;4.30;;;;;;;19.55;49.75;99661.04;234302;1199;139183;-57
2022/07/18 23:03:15;;;;;;;10.20;4.00;;;;;;;19.49;49.81;99658.73;234186;1200;139447;-56
2022/07/18 23:08:18;;;;;;;7.80;4.20;;;;;;;19.42;50.01;99656.33;233610;1199;139117;-56
2022/07/18 23:13:21;;;;;;;7.60;4.00;;;;;;;19.35;50.17;99664.86;234287;1199;139102;-56